sensor_id;sensor_type;location;lat;lon;timestamp;P1;durP1;ratioP1;P2;durP2;ratioP2
34982;SDS011;21187;50.976;13.720;2022-08-11T00:02:02;3.92;;;1.58;;
34982;SDS011;21187;50.976;13.720;2022-08-11T00:07:05;3.03;;;1.60;;
34982;SDS011;21187;50.976;13.720;2022-08-11T00:12:12;3.25;;;2.17;;
34982;SDS011;21187;50.976;13.720;2022-08-11T00:17:34;4.25;;;1.70;;
34982;SDS011;21187;50.976;13.720;2022-08-11T00:22:38;3.42;;;2.00;;
34982;SDS011;21187;50.976;13.720;2022-08-11T00:27:42;5.22;;;2.10;;
34982;SDS011;21187;50.976;13.720;2022-08-11T00:32:51;3.80;;;2.33;;
34982;SDS011;21187;50.976;13.720;2022-08-11T00:37:56;4.35;;;2.10;;
34982;SDS011;21187;50.976;13.720;2022-08-11T00:43:04;4.78;;;1.92;;
34982;SDS011;21187;50.976;13.720;2022-08-11T00:53:44;5.30;;;1.83;;
34982;SDS011;21187;50.976;13.720;2022-08-11T01:10:39;3.05;;;1.92;;
34982;SDS011;21187;50.976;13.720;2022-08-11T01:27:47;5.45;;;2.42;;
34982;SDS011;21187;50.976;13.720;2022-08-11T01:44:20;6.45;;;2.35;;
34982;SDS011;21187;50.976;13.720;2022-08-11T01:49:52;2.25;;;1.88;;
34982;SDS011;21187;50.976;13.720;2022-08-11T02:00:28;4.60;;;2.22;;
34982;SDS011;21187;50.976;13.720;2022-08-11T02:05:46;3.10;;;2.22;;
34982;SDS011;21187;50.976;13.720;2022-08-11T02:27:44;4.22;;;1.90;;
34982;SDS011;21187;50.976;13.720;2022-08-11T02:43:40;6.07;;;2.25;;
34982;SDS011;21187;50.976;13.720;2022-08-11T02:54:34;4.07;;;2.10;;
34982;SDS011;21187;50.976;13.720;2022-08-11T03:10:25;6.30;;;2.60;;
34982;SDS011;21187;50.976;13.720;2022-08-11T03:15:40;6.05;;;2.30;;
34982;SDS011;21187;50.976;13.720;2022-08-11T03:21:31;11.23;;;2.20;;
34982;SDS011;21187;50.976;13.720;2022-08-11T03:32:33;3.10;;;2.40;;
34982;SDS011;21187;50.976;13.720;2022-08-11T03:37:47;15.40;;;2.45;;
34982;SDS011;21187;50.976;13.720;2022-08-11T03:42:58;6.93;;;2.60;;
34982;SDS011;21187;50.976;13.720;2022-08-11T03:59:03;4.68;;;2.40;;
34982;SDS011;21187;50.976;13.720;2022-08-11T05:12:19;5.60;;;2.20;;
34982;SDS011;21187;50.976;13.720;2022-08-11T05:23:34;3.55;;;2.22;;
34982;SDS011;21187;50.976;13.720;2022-08-11T05:29:00;7.53;;;2.53;;
34982;SDS011;21187;50.976;13.720;2022-08-11T05:34:25;3.30;;;2.22;;
34982;SDS011;21187;50.976;13.720;2022-08-11T05:39:50;3.33;;;2.20;;
34982;SDS011;21187;50.976;13.720;2022-08-11T05:45:16;7.25;;;2.00;;
34982;SDS011;21187;50.976;13.720;2022-08-11T05:50:58;5.05;;;2.22;;
34982;SDS011;21187;50.976;13.720;2022-08-11T05:56:31;7.88;;;2.10;;
34982;SDS011;21187;50.976;13.720;2022-08-11T06:01:35;7.57;;;2.33;;
34982;SDS011;21187;50.976;13.720;2022-08-11T06:06:37;8.82;;;2.05;;
34982;SDS011;21187;50.976;13.720;2022-08-11T06:11:47;4.25;;;1.98;;
34982;SDS011;21187;50.976;13.720;2022-08-11T06:16:51;3.45;;;2.25;;
34982;SDS011;21187;50.976;13.720;2022-08-11T06:21:57;4.25;;;2.17;;
34982;SDS011;21187;50.976;13.720;2022-08-11T06:27:02;7.47;;;2.47;;
34982;SDS011;21187;50.976;13.720;2022-08-11T06:32:13;5.38;;;2.28;;
34982;SDS011;21187;50.976;13.720;2022-08-11T06:37:26;5.00;;;1.92;;
34982;SDS011;21187;50.976;13.720;2022-08-11T06:47:48;6.18;;;1.92;;
34982;SDS011;21187;50.976;13.720;2022-08-11T06:52:51;5.03;;;2.20;;
34982;SDS011;21187;50.976;13.720;2022-08-11T06:57:54;4.15;;;1.67;;
34982;SDS011;21187;50.976;13.720;2022-08-11T07:03:15;4.53;;;1.95;;
34982;SDS011;21187;50.976;13.720;2022-08-11T07:14:22;10.52;;;2.08;;
34982;SDS011;21187;50.976;13.720;2022-08-11T07:19:59;3.83;;;1.98;;
34982;SDS011;21187;50.976;13.720;2022-08-11T07:25:21;10.43;;;1.80;;
34982;SDS011;21187;50.976;13.720;2022-08-11T07:30:43;7.03;;;1.83;;
34982;SDS011;21187;50.976;13.720;2022-08-11T07:35:53;6.22;;;1.88;;
34982;SDS011;21187;50.976;13.720;2022-08-11T07:40:58;5.85;;;1.85;;
34982;SDS011;21187;50.976;13.720;2022-08-11T07:46:00;7.10;;;2.20;;
34982;SDS011;21187;50.976;13.720;2022-08-11T07:51:23;6.50;;;1.73;;
34982;SDS011;21187;50.976;13.720;2022-08-11T08:02:06;5.28;;;1.67;;
34982;SDS011;21187;50.976;13.720;2022-08-11T08:07:30;2.33;;;1.40;;
34982;SDS011;21187;50.976;13.720;2022-08-11T08:12:55;1.42;;;1.30;;
34982;SDS011;21187;50.976;13.720;2022-08-11T08:18:16;6.78;;;1.60;;
34982;SDS011;21187;50.976;13.720;2022-08-11T08:23:27;2.45;;;1.50;;
34982;SDS011;21187;50.976;13.720;2022-08-11T08:28:35;2.08;;;1.10;;
34982;SDS011;21187;50.976;13.720;2022-08-11T08:33:38;6.63;;;1.67;;
34982;SDS011;21187;50.976;13.720;2022-08-11T08:38:49;7.43;;;1.60;;
34982;SDS011;21187;50.976;13.720;2022-08-11T08:43:57;7.47;;;1.92;;
34982;SDS011;21187;50.976;13.720;2022-08-11T08:49:33;4.35;;;1.98;;
34982;SDS011;21187;50.976;13.720;2022-08-11T08:55:00;3.00;;;1.80;;
34982;SDS011;21187;50.976;13.720;2022-08-11T09:00:04;3.38;;;2.05;;
34982;SDS011;21187;50.976;13.720;2022-08-11T09:05:09;3.50;;;1.63;;
34982;SDS011;21187;50.976;13.720;2022-08-11T09:10:12;6.75;;;2.08;;
34982;SDS011;21187;50.976;13.720;2022-08-11T09:15:17;5.93;;;1.88;;
34982;SDS011;21187;50.976;13.720;2022-08-11T09:20:21;9.43;;;2.30;;
34982;SDS011;21187;50.976;13.720;2022-08-11T09:25:27;5.55;;;1.50;;
34982;SDS011;21187;50.976;13.720;2022-08-11T09:30:51;4.20;;;1.50;;
34982;SDS011;21187;50.976;13.720;2022-08-11T09:35:56;3.83;;;1.80;;
34982;SDS011;21187;50.976;13.720;2022-08-11T09:41:20;30.42;;;2.90;;
34982;SDS011;21187;50.976;13.720;2022-08-11T09:46:27;6.13;;;1.65;;
34982;SDS011;21187;50.976;13.720;2022-08-11T09:51:31;3.63;;;1.48;;
34982;SDS011;21187;50.976;13.720;2022-08-11T09:56:34;3.00;;;1.85;;
34982;SDS011;21187;50.976;13.720;2022-08-11T10:01:56;3.67;;;1.25;;
34982;SDS011;21187;50.976;13.720;2022-08-11T10:07:01;7.80;;;1.63;;
34982;SDS011;21187;50.976;13.720;2022-08-11T10:12:08;5.68;;;1.95;;
34982;SDS011;21187;50.976;13.720;2022-08-11T10:17:12;3.03;;;1.45;;
34982;SDS011;21187;50.976;13.720;2022-08-11T10:22:16;2.83;;;1.65;;
34982;SDS011;21187;50.976;13.720;2022-08-11T10:27:38;4.43;;;1.55;;
34982;SDS011;21187;50.976;13.720;2022-08-11T10:33:03;2.95;;;1.50;;
34982;SDS011;21187;50.976;13.720;2022-08-11T10:38:38;6.82;;;1.48;;
34982;SDS011;21187;50.976;13.720;2022-08-11T10:43:40;2.05;;;1.33;;
34982;SDS011;21187;50.976;13.720;2022-08-11T10:49:04;3.90;;;1.50;;
34982;SDS011;21187;50.976;13.720;2022-08-11T10:54:08;7.43;;;1.40;;
34982;SDS011;21187;50.976;13.720;2022-08-11T10:59:29;2.75;;;1.20;;
34982;SDS011;21187;50.976;13.720;2022-08-11T11:10:00;4.78;;;1.60;;
34982;SDS011;21187;50.976;13.720;2022-08-11T11:15:04;4.10;;;1.38;;
34982;SDS011;21187;50.976;13.720;2022-08-11T11:41:48;5.15;;;1.05;;
34982;SDS011;21187;50.976;13.720;2022-08-11T11:46:52;8.82;;;1.00;;
34982;SDS011;21187;50.976;13.720;2022-08-11T11:51:55;4.35;;;1.00;;
34982;SDS011;21187;50.976;13.720;2022-08-11T11:56:58;4.10;;;0.82;;
34982;SDS011;21187;50.976;13.720;2022-08-11T12:02:22;1.60;;;0.80;;
34982;SDS011;21187;50.976;13.720;2022-08-11T12:07:24;1.33;;;0.70;;
34982;SDS011;21187;50.976;13.720;2022-08-11T12:13:02;0.93;;;0.70;;
34982;SDS011;21187;50.976;13.720;2022-08-11T12:18:24;1.55;;;1.00;;
34982;SDS011;21187;50.976;13.720;2022-08-11T12:23:26;5.70;;;0.80;;
34982;SDS011;21187;50.976;13.720;2022-08-11T12:28:48;1.63;;;0.75;;
34982;SDS011;21187;50.976;13.720;2022-08-11T12:33:50;6.78;;;0.90;;
34982;SDS011;21187;50.976;13.720;2022-08-11T12:38:54;4.53;;;0.98;;
34982;SDS011;21187;50.976;13.720;2022-08-11T12:43:57;6.65;;;0.80;;
34982;SDS011;21187;50.976;13.720;2022-08-11T12:49:25;2.28;;;0.77;;
34982;SDS011;21187;50.976;13.720;2022-08-11T12:54:52;1.58;;;0.98;;
34982;SDS011;21187;50.976;13.720;2022-08-11T13:00:03;3.45;;;0.70;;
34982;SDS011;21187;50.976;13.720;2022-08-11T13:05:27;2.22;;;0.82;;
34982;SDS011;21187;50.976;13.720;2022-08-11T13:10:41;1.08;;;0.75;;
34982;SDS011;21187;50.976;13.720;2022-08-11T13:16:04;4.03;;;1.13;;
34982;SDS011;21187;50.976;13.720;2022-08-11T13:21:10;3.08;;;1.05;;
34982;SDS011;21187;50.976;13.720;2022-08-11T13:26:22;1.40;;;0.88;;
34982;SDS011;21187;50.976;13.720;2022-08-11T13:31:44;4.53;;;1.13;;
34982;SDS011;21187;50.976;13.720;2022-08-11T13:36:48;7.63;;;1.00;;
34982;SDS011;21187;50.976;13.720;2022-08-11T13:41:53;9.32;;;1.10;;
34982;SDS011;21187;50.976;13.720;2022-08-11T13:46:58;21.27;;;1.70;;
34982;SDS011;21187;50.976;13.720;2022-08-11T13:52:04;3.70;;;1.20;;
34982;SDS011;21187;50.976;13.720;2022-08-11T13:57:10;2.35;;;0.90;;
34982;SDS011;21187;50.976;13.720;2022-08-11T14:02:37;2.10;;;1.10;;
34982;SDS011;21187;50.976;13.720;2022-08-11T14:07:58;4.72;;;1.27;;
34982;SDS011;21187;50.976;13.720;2022-08-11T14:13:06;35.00;;;2.00;;
34982;SDS011;21187;50.976;13.720;2022-08-11T14:18:46;18.77;;;1.33;;
34982;SDS011;21187;50.976;13.720;2022-08-11T14:23:52;24.95;;;2.00;;
34982;SDS011;21187;50.976;13.720;2022-08-11T14:29:04;5.45;;;1.27;;
34982;SDS011;21187;50.976;13.720;2022-08-11T14:34:09;7.45;;;1.40;;
34982;SDS011;21187;50.976;13.720;2022-08-11T14:39:14;4.22;;;1.25;;
34982;SDS011;21187;50.976;13.720;2022-08-11T14:44:18;2.88;;;1.27;;
34982;SDS011;21187;50.976;13.720;2022-08-11T14:49:40;4.20;;;1.48;;
34982;SDS011;21187;50.976;13.720;2022-08-11T14:54:58;1.67;;;1.15;;
34982;SDS011;21187;50.976;13.720;2022-08-11T15:00:20;5.13;;;1.48;;
34982;SDS011;21187;50.976;13.720;2022-08-11T15:05:23;4.28;;;1.17;;
34982;SDS011;21187;50.976;13.720;2022-08-11T15:10:26;12.85;;;1.60;;
34982;SDS011;21187;50.976;13.720;2022-08-11T15:15:29;5.60;;;1.05;;
34982;SDS011;21187;50.976;13.720;2022-08-11T15:20:50;20.17;;;2.00;;
34982;SDS011;21187;50.976;13.720;2022-08-11T15:26:20;4.47;;;1.25;;
34982;SDS011;21187;50.976;13.720;2022-08-11T15:31:48;2.35;;;1.48;;
34982;SDS011;21187;50.976;13.720;2022-08-11T15:37:10;4.70;;;1.10;;
34982;SDS011;21187;50.976;13.720;2022-08-11T15:42:27;3.08;;;1.50;;
34982;SDS011;21187;50.976;13.720;2022-08-11T15:47:51;4.93;;;1.15;;
34982;SDS011;21187;50.976;13.720;2022-08-11T15:58:33;1.65;;;1.15;;
34982;SDS011;21187;50.976;13.720;2022-08-11T16:04:19;6.18;;;1.30;;
34982;SDS011;21187;50.976;13.720;2022-08-11T16:09:41;3.33;;;1.05;;
34982;SDS011;21187;50.976;13.720;2022-08-11T16:14:55;13.15;;;1.58;;
34982;SDS011;21187;50.976;13.720;2022-08-11T16:20:21;5.25;;;1.33;;
34982;SDS011;21187;50.976;13.720;2022-08-11T16:25:26;1.80;;;1.10;;
34982;SDS011;21187;50.976;13.720;2022-08-11T16:30:49;3.95;;;1.45;;
34982;SDS011;21187;50.976;13.720;2022-08-11T16:35:52;2.97;;;1.00;;
34982;SDS011;21187;50.976;13.720;2022-08-11T16:41:15;5.93;;;1.35;;
34982;SDS011;21187;50.976;13.720;2022-08-11T16:46:38;1.88;;;1.17;;
34982;SDS011;21187;50.976;13.720;2022-08-11T16:51:59;3.63;;;1.75;;
34982;SDS011;21187;50.976;13.720;2022-08-11T16:57:05;6.85;;;1.60;;
34982;SDS011;21187;50.976;13.720;2022-08-11T17:02:29;6.82;;;1.40;;
34982;SDS011;21187;50.976;13.720;2022-08-11T17:07:53;1.73;;;0.90;;
34982;SDS011;21187;50.976;13.720;2022-08-11T17:13:15;9.25;;;1.08;;
34982;SDS011;21187;50.976;13.720;2022-08-11T17:18:21;1.92;;;0.90;;
34982;SDS011;21187;50.976;13.720;2022-08-11T17:23:45;2.08;;;1.00;;
34982;SDS011;21187;50.976;13.720;2022-08-11T17:28:56;3.97;;;1.17;;
34982;SDS011;21187;50.976;13.720;2022-08-11T17:33:59;4.70;;;1.10;;
34982;SDS011;21187;50.976;13.720;2022-08-11T17:39:24;0.98;;;0.77;;
34982;SDS011;21187;50.976;13.720;2022-08-11T17:44:30;5.80;;;0.98;;
34982;SDS011;21187;50.976;13.720;2022-08-11T17:49:52;2.70;;;1.15;;
34982;SDS011;21187;50.976;13.720;2022-08-11T17:55:09;1.75;;;0.98;;
34982;SDS011;21187;50.976;13.720;2022-08-11T18:00:50;3.70;;;0.98;;
34982;SDS011;21187;50.976;13.720;2022-08-11T18:05:55;1.83;;;1.02;;
34982;SDS011;21187;50.976;13.720;2022-08-11T18:11:00;2.60;;;1.08;;
34982;SDS011;21187;50.976;13.720;2022-08-11T18:16:42;5.30;;;1.23;;
34982;SDS011;21187;50.976;13.720;2022-08-11T18:22:07;1.42;;;1.00;;
34982;SDS011;21187;50.976;13.720;2022-08-11T18:27:32;3.72;;;0.80;;
34982;SDS011;21187;50.976;13.720;2022-08-11T18:32:57;4.65;;;1.00;;
34982;SDS011;21187;50.976;13.720;2022-08-11T18:38:41;3.63;;;1.00;;
34982;SDS011;21187;50.976;13.720;2022-08-11T18:44:05;1.95;;;1.08;;
34982;SDS011;21187;50.976;13.720;2022-08-11T18:49:33;2.72;;;1.25;;
34982;SDS011;21187;50.976;13.720;2022-08-11T18:55:10;5.55;;;1.00;;
34982;SDS011;21187;50.976;13.720;2022-08-11T19:00:35;7.03;;;1.20;;
34982;SDS011;21187;50.976;13.720;2022-08-11T19:06:00;2.58;;;1.05;;
34982;SDS011;21187;50.976;13.720;2022-08-11T19:11:40;1.77;;;1.15;;
34982;SDS011;21187;50.976;13.720;2022-08-11T19:17:04;7.30;;;1.00;;
34982;SDS011;21187;50.976;13.720;2022-08-11T19:22:46;3.80;;;1.05;;
34982;SDS011;21187;50.976;13.720;2022-08-11T19:28:08;7.95;;;1.02;;
34982;SDS011;21187;50.976;13.720;2022-08-11T19:39:10;4.63;;;1.13;;
34982;SDS011;21187;50.976;13.720;2022-08-11T19:44:32;3.90;;;1.13;;
34982;SDS011;21187;50.976;13.720;2022-08-11T19:49:54;1.73;;;1.33;;
34982;SDS011;21187;50.976;13.720;2022-08-11T19:55:27;1.48;;;1.08;;
34982;SDS011;21187;50.976;13.720;2022-08-11T20:00:48;1.92;;;1.02;;
34982;SDS011;21187;50.976;13.720;2022-08-11T20:11:31;1.83;;;1.10;;
34982;SDS011;21187;50.976;13.720;2022-08-11T20:16:55;1.05;;;0.90;;
34982;SDS011;21187;50.976;13.720;2022-08-11T20:22:17;1.95;;;1.10;;
34982;SDS011;21187;50.976;13.720;2022-08-11T20:27:40;3.33;;;1.10;;
34982;SDS011;21187;50.976;13.720;2022-08-11T20:33:02;4.20;;;1.20;;
34982;SDS011;21187;50.976;13.720;2022-08-11T20:38:24;5.15;;;1.40;;
34982;SDS011;21187;50.976;13.720;2022-08-11T20:43:48;1.60;;;1.05;;
34982;SDS011;21187;50.976;13.720;2022-08-11T20:49:10;3.38;;;1.48;;
34982;SDS011;21187;50.976;13.720;2022-08-11T20:54:51;3.58;;;1.00;;
34982;SDS011;21187;50.976;13.720;2022-08-11T21:00:26;7.55;;;1.27;;
34982;SDS011;21187;50.976;13.720;2022-08-11T21:05:47;4.47;;;1.25;;
34982;SDS011;21187;50.976;13.720;2022-08-11T21:11:11;2.75;;;1.40;;
34982;SDS011;21187;50.976;13.720;2022-08-11T21:16:34;1.85;;;1.25;;
34982;SDS011;21187;50.976;13.720;2022-08-11T21:21:56;1.95;;;1.08;;
34982;SDS011;21187;50.976;13.720;2022-08-11T21:27:20;2.22;;;1.00;;
34982;SDS011;21187;50.976;13.720;2022-08-11T21:32:43;1.73;;;1.10;;
34982;SDS011;21187;50.976;13.720;2022-08-11T21:38:04;4.95;;;1.42;;
34982;SDS011;21187;50.976;13.720;2022-08-11T21:43:26;3.67;;;1.48;;
34982;SDS011;21187;50.976;13.720;2022-08-11T21:48:50;5.43;;;2.45;;
34982;SDS011;21187;50.976;13.720;2022-08-11T21:54:16;2.85;;;1.30;;
34982;SDS011;21187;50.976;13.720;2022-08-11T22:05:13;2.00;;;1.30;;
34982;SDS011;21187;50.976;13.720;2022-08-11T22:10:35;1.63;;;1.23;;
34982;SDS011;21187;50.976;13.720;2022-08-11T22:15:57;2.90;;;1.25;;
34982;SDS011;21187;50.976;13.720;2022-08-11T22:21:18;4.60;;;1.30;;
34982;SDS011;21187;50.976;13.720;2022-08-11T22:26:59;1.80;;;1.20;;
34982;SDS011;21187;50.976;13.720;2022-08-11T22:32:20;2.70;;;1.15;;
34982;SDS011;21187;50.976;13.720;2022-08-11T22:37:42;3.05;;;1.30;;
34982;SDS011;21187;50.976;13.720;2022-08-11T22:43:05;4.40;;;1.20;;
34982;SDS011;21187;50.976;13.720;2022-08-11T22:53:49;4.05;;;1.38;;
34982;SDS011;21187;50.976;13.720;2022-08-11T22:59:13;5.50;;;1.40;;
34982;SDS011;21187;50.976;13.720;2022-08-11T23:04:35;3.75;;;1.40;;
34982;SDS011;21187;50.976;13.720;2022-08-11T23:09:57;2.40;;;1.02;;
34982;SDS011;21187;50.976;13.720;2022-08-11T23:20:41;3.20;;;1.40;;
34982;SDS011;21187;50.976;13.720;2022-08-11T23:26:03;3.65;;;1.40;;
34982;SDS011;21187;50.976;13.720;2022-08-11T23:31:24;5.10;;;1.65;;
34982;SDS011;21187;50.976;13.720;2022-08-11T23:36:51;5.40;;;1.42;;
34982;SDS011;21187;50.976;13.720;2022-08-11T23:42:14;2.15;;;1.05;;
34982;SDS011;21187;50.976;13.720;2022-08-11T23:47:37;2.40;;;1.40;;
34982;SDS011;21187;50.976;13.720;2022-08-11T23:52:58;35.50;;;2.70;;
34982;SDS011;21187;50.976;13.720;2022-08-11T23:58:19;7.65;;;1.30;;
